sensor_id;sensor_type;location;lat;lon;timestamp;temperature;humidity
79024;DHT22;70306;44.764;37.688;2023-07-24T00:00:38;25.57;74.40
79024;DHT22;70306;44.764;37.688;2023-07-24T00:01:41;25.52;74.16
79024;DHT22;70306;44.764;37.688;2023-07-24T00:02:43;25.52;74.08
79024;DHT22;70306;44.764;37.688;2023-07-24T00:03:45;25.55;74.25
79024;DHT22;70306;44.764;37.688;2023-07-24T00:04:47;25.54;74.31
79024;DHT22;70306;44.764;37.688;2023-07-24T00:05:48;25.52;74.10
79024;DHT22;70306;44.764;37.688;2023-07-24T00:06:50;25.55;74.50
79024;DHT22;70306;44.764;37.688;2023-07-24T00:07:52;25.54;74.54
79024;DHT22;70306;44.764;37.688;2023-07-24T00:08:53;25.52;74.60
79024;DHT22;70306;44.764;37.688;2023-07-24T00:09:55;25.52;74.58
79024;DHT22;70306;44.764;37.688;2023-07-24T00:10:56;25.48;74.44
79024;DHT22;70306;44.764;37.688;2023-07-24T00:11:58;25.49;74.44
79024;DHT22;70306;44.764;37.688;2023-07-24T00:13:00;25.49;74.53
79024;DHT22;70306;44.764;37.688;2023-07-24T00:14:02;25.48;74.63
79024;DHT22;70306;44.764;37.688;2023-07-24T00:15:24;25.45;73.84
79024;DHT22;70306;44.764;37.688;2023-07-24T00:16:25;25.42;73.81
79024;DHT22;70306;44.764;37.688;2023-07-24T00:17:27;25.39;74.04
79024;DHT22;70306;44.764;37.688;2023-07-24T00:18:28;25.38;73.21
79024;DHT22;70306;44.764;37.688;2023-07-24T00:19:30;25.37;74.08
79024;DHT22;70306;44.764;37.688;2023-07-24T00:20:33;25.35;74.01
79024;DHT22;70306;44.764;37.688;2023-07-24T00:21:34;25.35;74.13
79024;DHT22;70306;44.764;37.688;2023-07-24T00:22:36;25.34;73.39
79024;DHT22;70306;44.764;37.688;2023-07-24T00:23:38;25.34;74.17
79024;DHT22;70306;44.764;37.688;2023-07-24T00:24:39;25.34;73.62
79024;DHT22;70306;44.764;37.688;2023-07-24T00:25:41;25.28;73.15
79024;DHT22;70306;44.764;37.688;2023-07-24T00:26:42;25.26;72.78
79024;DHT22;70306;44.764;37.688;2023-07-24T00:27:44;25.23;72.65
79024;DHT22;70306;44.764;37.688;2023-07-24T00:28:47;25.20;72.73
79024;DHT22;70306;44.764;37.688;2023-07-24T00:29:49;25.20;73.20
79024;DHT22;70306;44.764;37.688;2023-07-24T00:30:51;25.20;72.44
79024;DHT22;70306;44.764;37.688;2023-07-24T00:31:53;25.16;73.14
79024;DHT22;70306;44.764;37.688;2023-07-24T00:32:55;25.16;72.93
79024;DHT22;70306;44.764;37.688;2023-07-24T00:33:57;25.14;72.37
79024;DHT22;70306;44.764;37.688;2023-07-24T00:35:01;25.09;72.90
79024;DHT22;70306;44.764;37.688;2023-07-24T00:36:03;25.04;72.41
79024;DHT22;70306;44.764;37.688;2023-07-24T00:37:05;25.09;72.95
79024;DHT22;70306;44.764;37.688;2023-07-24T00:38:07;25.07;72.63
79024;DHT22;70306;44.764;37.688;2023-07-24T00:39:09;25.07;72.30
79024;DHT22;70306;44.764;37.688;2023-07-24T00:40:11;25.00;72.14
79024;DHT22;70306;44.764;37.688;2023-07-24T00:41:13;25.00;72.48
79024;DHT22;70306;44.764;37.688;2023-07-24T00:42:15;25.02;72.30
79024;DHT22;70306;44.764;37.688;2023-07-24T00:43:17;24.99;72.44
79024;DHT22;70306;44.764;37.688;2023-07-24T00:44:18;24.97;71.90
79024;DHT22;70306;44.764;37.688;2023-07-24T00:45:22;24.97;72.75
79024;DHT22;70306;44.764;37.688;2023-07-24T00:46:25;24.97;72.10
79024;DHT22;70306;44.764;37.688;2023-07-24T00:47:27;24.99;71.92
79024;DHT22;70306;44.764;37.688;2023-07-24T00:48:29;24.96;71.71
79024;DHT22;70306;44.764;37.688;2023-07-24T00:49:30;24.96;72.27
79024;DHT22;70306;44.764;37.688;2023-07-24T00:50:32;24.99;71.81
79024;DHT22;70306;44.764;37.688;2023-07-24T00:51:34;24.96;72.71
79024;DHT22;70306;44.764;37.688;2023-07-24T00:52:37;24.99;72.34
79024;DHT22;70306;44.764;37.688;2023-07-24T00:53:39;25.00;71.90
79024;DHT22;70306;44.764;37.688;2023-07-24T00:54:41;25.06;71.75
79024;DHT22;70306;44.764;37.688;2023-07-24T00:55:47;25.03;71.84
79024;DHT22;70306;44.764;37.688;2023-07-24T00:56:49;25.02;71.82
79024;DHT22;70306;44.764;37.688;2023-07-24T00:57:51;25.02;72.31
79024;DHT22;70306;44.764;37.688;2023-07-24T00:58:54;25.09;72.36
79024;DHT22;70306;44.764;37.688;2023-07-24T00:59:59;25.06;71.74
79024;DHT22;70306;44.764;37.688;2023-07-24T01:01:01;25.02;71.82
79024;DHT22;70306;44.764;37.688;2023-07-24T01:02:04;25.03;72.43
79024;DHT22;70306;44.764;37.688;2023-07-24T01:03:06;25.06;72.56
79024;DHT22;70306;44.764;37.688;2023-07-24T01:04:08;25.06;72.52
79024;DHT22;70306;44.764;37.688;2023-07-24T01:05:13;25.09;72.01
79024;DHT22;70306;44.764;37.688;2023-07-24T01:06:17;25.09;72.59
79024;DHT22;70306;44.764;37.688;2023-07-24T01:07:20;25.06;71.71
79024;DHT22;70306;44.764;37.688;2023-07-24T01:08:22;25.04;72.07
79024;DHT22;70306;44.764;37.688;2023-07-24T01:09:24;24.97;71.70
79024;DHT22;70306;44.764;37.688;2023-07-24T01:10:25;24.94;72.50
79024;DHT22;70306;44.764;37.688;2023-07-24T01:11:37;24.96;71.72
79024;DHT22;70306;44.764;37.688;2023-07-24T01:13:04;24.92;71.53
79024;DHT22;70306;44.764;37.688;2023-07-24T01:14:24;24.86;71.61
79024;DHT22;70306;44.764;37.688;2023-07-24T01:16:36;24.80;71.75
79024;DHT22;70306;44.764;37.688;2023-07-24T01:17:44;24.79;72.39
79024;DHT22;70306;44.764;37.688;2023-07-24T01:18:47;24.77;72.59
79024;DHT22;70306;44.764;37.688;2023-07-24T01:19:54;24.73;72.27
79024;DHT22;70306;44.764;37.688;2023-07-24T01:20:57;24.71;72.53
79024;DHT22;70306;44.764;37.688;2023-07-24T01:26:53;24.47;74.32
79024;DHT22;70306;44.764;37.688;2023-07-24T01:27:54;24.44;74.72
79024;DHT22;70306;44.764;37.688;2023-07-24T01:28:56;24.45;74.80
79024;DHT22;70306;44.764;37.688;2023-07-24T01:29:57;24.45;74.94
79024;DHT22;70306;44.764;37.688;2023-07-24T01:30:59;24.44;75.02
79024;DHT22;70306;44.764;37.688;2023-07-24T01:32:01;24.45;75.45
79024;DHT22;70306;44.764;37.688;2023-07-24T01:33:03;24.48;75.15
79024;DHT22;70306;44.764;37.688;2023-07-24T01:34:04;24.47;74.72
79024;DHT22;70306;44.764;37.688;2023-07-24T01:35:06;24.42;74.75
79024;DHT22;70306;44.764;37.688;2023-07-24T01:36:08;24.42;74.89
79024;DHT22;70306;44.764;37.688;2023-07-24T01:37:12;24.44;74.59
79024;DHT22;70306;44.764;37.688;2023-07-24T01:38:14;24.41;74.82
79024;DHT22;70306;44.764;37.688;2023-07-24T01:39:17;24.42;74.42
79024;DHT22;70306;44.764;37.688;2023-07-24T01:40:20;24.35;74.92
79024;DHT22;70306;44.764;37.688;2023-07-24T01:41:23;24.30;75.18
79024;DHT22;70306;44.764;37.688;2023-07-24T01:42:25;24.27;75.43
79024;DHT22;70306;44.764;37.688;2023-07-24T01:43:29;24.30;74.98
79024;DHT22;70306;44.764;37.688;2023-07-24T01:44:30;24.27;74.72
79024;DHT22;70306;44.764;37.688;2023-07-24T01:45:32;24.23;74.83
79024;DHT22;70306;44.764;37.688;2023-07-24T01:46:34;24.14;74.98
79024;DHT22;70306;44.764;37.688;2023-07-24T01:47:35;24.09;75.18
79024;DHT22;70306;44.764;37.688;2023-07-24T01:48:38;24.12;75.08
79024;DHT22;70306;44.764;37.688;2023-07-24T01:49:39;24.10;75.43
79024;DHT22;70306;44.764;37.688;2023-07-24T01:50:41;24.10;75.32
79024;DHT22;70306;44.764;37.688;2023-07-24T01:51:42;24.16;75.79
79024;DHT22;70306;44.764;37.688;2023-07-24T01:52:44;24.17;75.55
79024;DHT22;70306;44.764;37.688;2023-07-24T01:53:46;24.18;75.03
79024;DHT22;70306;44.764;37.688;2023-07-24T01:54:48;24.14;75.29
79024;DHT22;70306;44.764;37.688;2023-07-24T01:55:50;24.13;75.03
79024;DHT22;70306;44.764;37.688;2023-07-24T01:56:52;24.13;74.75
79024;DHT22;70306;44.764;37.688;2023-07-24T01:57:53;24.13;74.90
79024;DHT22;70306;44.764;37.688;2023-07-24T01:58:55;24.09;74.58
79024;DHT22;70306;44.764;37.688;2023-07-24T01:59:57;24.06;74.63
79024;DHT22;70306;44.764;37.688;2023-07-24T02:00:59;24.03;74.57
79024;DHT22;70306;44.764;37.688;2023-07-24T02:02:01;24.02;75.02
79024;DHT22;70306;44.764;37.688;2023-07-24T02:03:03;24.02;74.63
79024;DHT22;70306;44.764;37.688;2023-07-24T02:04:05;23.97;74.53
79024;DHT22;70306;44.764;37.688;2023-07-24T02:05:08;23.95;74.61
79024;DHT22;70306;44.764;37.688;2023-07-24T02:06:09;23.86;74.65
79024;DHT22;70306;44.764;37.688;2023-07-24T02:07:11;23.86;74.91
79024;DHT22;70306;44.764;37.688;2023-07-24T02:08:13;23.88;75.23
79024;DHT22;70306;44.764;37.688;2023-07-24T02:09:17;23.92;74.74
79024;DHT22;70306;44.764;37.688;2023-07-24T02:10:19;23.88;74.60
79024;DHT22;70306;44.764;37.688;2023-07-24T02:11:20;23.89;74.92
79024;DHT22;70306;44.764;37.688;2023-07-24T02:12:27;23.88;74.79
79024;DHT22;70306;44.764;37.688;2023-07-24T02:13:30;23.86;74.53
79024;DHT22;70306;44.764;37.688;2023-07-24T02:14:31;23.86;74.53
79024;DHT22;70306;44.764;37.688;2023-07-24T02:15:33;23.85;74.55
79024;DHT22;70306;44.764;37.688;2023-07-24T02:16:35;23.82;74.91
79024;DHT22;70306;44.764;37.688;2023-07-24T02:17:37;23.83;74.52
79024;DHT22;70306;44.764;37.688;2023-07-24T02:18:42;23.83;74.78
79024;DHT22;70306;44.764;37.688;2023-07-24T02:19:44;23.88;74.89
79024;DHT22;70306;44.764;37.688;2023-07-24T02:20:49;23.86;74.43
79024;DHT22;70306;44.764;37.688;2023-07-24T02:21:52;23.90;74.64
79024;DHT22;70306;44.764;37.688;2023-07-24T02:22:54;23.92;74.57
79024;DHT22;70306;44.764;37.688;2023-07-24T02:23:55;23.93;74.30
79024;DHT22;70306;44.764;37.688;2023-07-24T02:24:57;23.96;73.98
79024;DHT22;70306;44.764;37.688;2023-07-24T02:25:59;23.95;73.73
79024;DHT22;70306;44.764;37.688;2023-07-24T02:27:01;23.95;73.67
79024;DHT22;70306;44.764;37.688;2023-07-24T02:28:06;23.93;74.12
79024;DHT22;70306;44.764;37.688;2023-07-24T02:29:07;23.97;73.64
79024;DHT22;70306;44.764;37.688;2023-07-24T02:30:09;23.99;73.78
79024;DHT22;70306;44.764;37.688;2023-07-24T02:31:11;24.05;74.35
79024;DHT22;70306;44.764;37.688;2023-07-24T02:32:13;24.02;73.54
79024;DHT22;70306;44.764;37.688;2023-07-24T02:33:15;24.05;74.13
79024;DHT22;70306;44.764;37.688;2023-07-24T02:34:17;24.05;73.66
79024;DHT22;70306;44.764;37.688;2023-07-24T02:35:19;24.10;73.79
79024;DHT22;70306;44.764;37.688;2023-07-24T02:36:21;24.10;74.47
79024;DHT22;70306;44.764;37.688;2023-07-24T02:37:23;24.13;74.76
79024;DHT22;70306;44.764;37.688;2023-07-24T02:38:25;24.14;74.63
79024;DHT22;70306;44.764;37.688;2023-07-24T02:39:27;24.16;74.42
79024;DHT22;70306;44.764;37.688;2023-07-24T02:40:29;24.20;74.02
79024;DHT22;70306;44.764;37.688;2023-07-24T02:41:31;24.21;73.71
79024;DHT22;70306;44.764;37.688;2023-07-24T02:42:33;24.21;73.89
79024;DHT22;70306;44.764;37.688;2023-07-24T02:43:35;24.24;73.32
79024;DHT22;70306;44.764;37.688;2023-07-24T02:44:37;24.23;73.36
79024;DHT22;70306;44.764;37.688;2023-07-24T02:45:39;24.23;73.44
79024;DHT22;70306;44.764;37.688;2023-07-24T02:46:41;24.20;73.43
79024;DHT22;70306;44.764;37.688;2023-07-24T02:47:43;24.20;73.60
79024;DHT22;70306;44.764;37.688;2023-07-24T02:48:45;24.17;74.11
79024;DHT22;70306;44.764;37.688;2023-07-24T02:49:47;24.17;74.25
79024;DHT22;70306;44.764;37.688;2023-07-24T02:50:49;24.18;74.46
79024;DHT22;70306;44.764;37.688;2023-07-24T02:51:51;24.16;74.35
79024;DHT22;70306;44.764;37.688;2023-07-24T02:52:53;24.17;74.79
79024;DHT22;70306;44.764;37.688;2023-07-24T02:53:55;24.18;74.77
79024;DHT22;70306;44.764;37.688;2023-07-24T02:54:57;24.17;73.94
79024;DHT22;70306;44.764;37.688;2023-07-24T02:56:01;24.20;74.60
79024;DHT22;70306;44.764;37.688;2023-07-24T02:57:04;24.24;74.90
79024;DHT22;70306;44.764;37.688;2023-07-24T02:58:06;24.20;73.92
79024;DHT22;70306;44.764;37.688;2023-07-24T02:59:08;24.18;74.53
79024;DHT22;70306;44.764;37.688;2023-07-24T03:00:10;24.17;74.20
79024;DHT22;70306;44.764;37.688;2023-07-24T03:01:12;24.13;74.00
79024;DHT22;70306;44.764;37.688;2023-07-24T03:02:15;24.17;73.96
79024;DHT22;70306;44.764;37.688;2023-07-24T03:03:17;24.21;74.19
79024;DHT22;70306;44.764;37.688;2023-07-24T03:04:19;24.20;74.20
79024;DHT22;70306;44.764;37.688;2023-07-24T03:05:21;24.18;73.95
79024;DHT22;70306;44.764;37.688;2023-07-24T03:06:24;24.18;74.26
79024;DHT22;70306;44.764;37.688;2023-07-24T03:07:26;24.24;74.08
79024;DHT22;70306;44.764;37.688;2023-07-24T03:08:28;24.28;74.26
79024;DHT22;70306;44.764;37.688;2023-07-24T03:09:31;24.34;74.26
79024;DHT22;70306;44.764;37.688;2023-07-24T03:10:33;24.38;74.25
79024;DHT22;70306;44.764;37.688;2023-07-24T03:11:35;24.44;74.06
79024;DHT22;70306;44.764;37.688;2023-07-24T03:12:38;24.45;73.80
79024;DHT22;70306;44.764;37.688;2023-07-24T03:13:40;24.48;73.59
79024;DHT22;70306;44.764;37.688;2023-07-24T03:14:42;24.49;72.78
79024;DHT22;70306;44.764;37.688;2023-07-24T03:15:52;24.49;72.60
79024;DHT22;70306;44.764;37.688;2023-07-24T03:16:54;24.47;72.56
79024;DHT22;70306;44.764;37.688;2023-07-24T03:17:56;24.48;72.97
79024;DHT22;70306;44.764;37.688;2023-07-24T03:18:58;24.47;72.27
79024;DHT22;70306;44.764;37.688;2023-07-24T03:20:08;24.48;71.54
79024;DHT22;70306;44.764;37.688;2023-07-24T03:21:10;24.42;72.22
79024;DHT22;70306;44.764;37.688;2023-07-24T03:22:12;24.44;71.76
79024;DHT22;70306;44.764;37.688;2023-07-24T03:23:15;24.40;71.65
79024;DHT22;70306;44.764;37.688;2023-07-24T03:24:17;24.40;71.25
79024;DHT22;70306;44.764;37.688;2023-07-24T03:25:19;24.40;71.32
79024;DHT22;70306;44.764;37.688;2023-07-24T03:26:25;24.42;71.85
79024;DHT22;70306;44.764;37.688;2023-07-24T03:27:27;24.42;70.99
79024;DHT22;70306;44.764;37.688;2023-07-24T03:28:28;24.40;72.30
79024;DHT22;70306;44.764;37.688;2023-07-24T03:29:30;24.35;71.59
79024;DHT22;70306;44.764;37.688;2023-07-24T03:30:32;24.40;71.47
79024;DHT22;70306;44.764;37.688;2023-07-24T03:31:35;24.41;71.83
79024;DHT22;70306;44.764;37.688;2023-07-24T03:32:37;24.42;71.09
79024;DHT22;70306;44.764;37.688;2023-07-24T03:33:39;24.42;70.67
79024;DHT22;70306;44.764;37.688;2023-07-24T03:34:41;24.38;70.97
79024;DHT22;70306;44.764;37.688;2023-07-24T03:35:43;24.38;70.32
79024;DHT22;70306;44.764;37.688;2023-07-24T03:36:45;24.37;71.19
79024;DHT22;70306;44.764;37.688;2023-07-24T03:37:47;24.37;71.05
79024;DHT22;70306;44.764;37.688;2023-07-24T03:38:49;24.38;70.90
79024;DHT22;70306;44.764;37.688;2023-07-24T03:39:51;24.40;71.20
79024;DHT22;70306;44.764;37.688;2023-07-24T03:40:54;24.41;70.64
79024;DHT22;70306;44.764;37.688;2023-07-24T03:41:56;24.42;70.64
79024;DHT22;70306;44.764;37.688;2023-07-24T03:42:58;24.42;70.41
79024;DHT22;70306;44.764;37.688;2023-07-24T03:44:00;24.42;69.99
79024;DHT22;70306;44.764;37.688;2023-07-24T03:45:02;24.41;70.06
79024;DHT22;70306;44.764;37.688;2023-07-24T03:46:05;24.41;70.52
79024;DHT22;70306;44.764;37.688;2023-07-24T03:47:07;24.44;70.50
79024;DHT22;70306;44.764;37.688;2023-07-24T03:48:09;24.44;70.08
79024;DHT22;70306;44.764;37.688;2023-07-24T03:49:11;24.40;70.10
79024;DHT22;70306;44.764;37.688;2023-07-24T03:50:13;24.33;70.05
79024;DHT22;70306;44.764;37.688;2023-07-24T03:51:15;24.33;70.14
79024;DHT22;70306;44.764;37.688;2023-07-24T03:52:17;24.30;70.62
79024;DHT22;70306;44.764;37.688;2023-07-24T03:53:19;24.28;70.64
79024;DHT22;70306;44.764;37.688;2023-07-24T03:54:20;24.30;70.49
79024;DHT22;70306;44.764;37.688;2023-07-24T03:55:22;24.28;70.19
79024;DHT22;70306;44.764;37.688;2023-07-24T03:56:24;24.33;70.39
79024;DHT22;70306;44.764;37.688;2023-07-24T03:57:26;24.34;70.11
79024;DHT22;70306;44.764;37.688;2023-07-24T03:58:28;24.34;70.54
79024;DHT22;70306;44.764;37.688;2023-07-24T03:59:30;24.31;70.30
79024;DHT22;70306;44.764;37.688;2023-07-24T04:00:33;24.35;71.47
79024;DHT22;70306;44.764;37.688;2023-07-24T04:01:35;24.37;70.33
79024;DHT22;70306;44.764;37.688;2023-07-24T04:02:37;24.38;70.86
79024;DHT22;70306;44.764;37.688;2023-07-24T04:03:39;24.48;70.85
79024;DHT22;70306;44.764;37.688;2023-07-24T04:04:42;24.54;70.57
79024;DHT22;70306;44.764;37.688;2023-07-24T04:05:44;24.61;69.66
79024;DHT22;70306;44.764;37.688;2023-07-24T04:06:47;24.65;69.96
79024;DHT22;70306;44.764;37.688;2023-07-24T04:07:49;24.65;69.88
79024;DHT22;70306;44.764;37.688;2023-07-24T04:08:51;24.69;70.11
79024;DHT22;70306;44.764;37.688;2023-07-24T04:09:53;24.76;70.00
79024;DHT22;70306;44.764;37.688;2023-07-24T04:10:55;24.83;69.87
79024;DHT22;70306;44.764;37.688;2023-07-24T04:12:00;24.89;69.02
79024;DHT22;70306;44.764;37.688;2023-07-24T04:13:02;24.93;68.78
79024;DHT22;70306;44.764;37.688;2023-07-24T04:14:04;24.96;68.16
79024;DHT22;70306;44.764;37.688;2023-07-24T04:15:07;24.92;67.85
79024;DHT22;70306;44.764;37.688;2023-07-24T04:16:09;24.94;67.54
79024;DHT22;70306;44.764;37.688;2023-07-24T04:17:10;24.92;68.40
79024;DHT22;70306;44.764;37.688;2023-07-24T04:18:12;24.96;68.04
79024;DHT22;70306;44.764;37.688;2023-07-24T04:19:14;24.90;67.48
79024;DHT22;70306;44.764;37.688;2023-07-24T04:20:16;24.93;67.66
79024;DHT22;70306;44.764;37.688;2023-07-24T04:21:18;24.92;67.30
79024;DHT22;70306;44.764;37.688;2023-07-24T04:22:20;24.87;67.62
79024;DHT22;70306;44.764;37.688;2023-07-24T04:23:22;24.93;67.94
79024;DHT22;70306;44.764;37.688;2023-07-24T04:24:24;24.97;67.46
79024;DHT22;70306;44.764;37.688;2023-07-24T04:25:26;24.96;67.15
79024;DHT22;70306;44.764;37.688;2023-07-24T04:26:28;24.96;67.72
79024;DHT22;70306;44.764;37.688;2023-07-24T04:27:30;24.92;67.03
79024;DHT22;70306;44.764;37.688;2023-07-24T04:28:32;24.85;67.13
79024;DHT22;70306;44.764;37.688;2023-07-24T04:29:34;24.86;67.51
79024;DHT22;70306;44.764;37.688;2023-07-24T04:30:36;24.90;67.30
79024;DHT22;70306;44.764;37.688;2023-07-24T04:31:37;24.89;67.53
79024;DHT22;70306;44.764;37.688;2023-07-24T04:32:40;24.92;67.60
79024;DHT22;70306;44.764;37.688;2023-07-24T04:33:41;25.00;67.36
79024;DHT22;70306;44.764;37.688;2023-07-24T04:34:43;25.06;66.70
79024;DHT22;70306;44.764;37.688;2023-07-24T04:35:48;25.03;66.30
79024;DHT22;70306;44.764;37.688;2023-07-24T04:36:50;25.04;66.80
79024;DHT22;70306;44.764;37.688;2023-07-24T04:37:52;25.14;66.72
79024;DHT22;70306;44.764;37.688;2023-07-24T04:38:54;25.27;66.81
79024;DHT22;70306;44.764;37.688;2023-07-24T04:39:56;25.30;66.86
79024;DHT22;70306;44.764;37.688;2023-07-24T04:41:00;25.38;65.73
79024;DHT22;70306;44.764;37.688;2023-07-24T04:42:03;25.39;64.73
79024;DHT22;70306;44.764;37.688;2023-07-24T04:43:05;25.38;64.92
79024;DHT22;70306;44.764;37.688;2023-07-24T04:44:07;25.39;65.69
79024;DHT22;70306;44.764;37.688;2023-07-24T04:45:09;25.45;65.20
79024;DHT22;70306;44.764;37.688;2023-07-24T04:46:11;25.48;65.58
79024;DHT22;70306;44.764;37.688;2023-07-24T04:47:13;25.58;64.75
79024;DHT22;70306;44.764;37.688;2023-07-24T04:48:15;25.57;64.19
79024;DHT22;70306;44.764;37.688;2023-07-24T04:49:17;25.46;63.66
79024;DHT22;70306;44.764;37.688;2023-07-24T04:50:19;25.35;63.85
79024;DHT22;70306;44.764;37.688;2023-07-24T04:51:21;25.33;65.18
79024;DHT22;70306;44.764;37.688;2023-07-24T04:52:23;25.34;64.60
79024;DHT22;70306;44.764;37.688;2023-07-24T04:53:25;25.28;64.33
79024;DHT22;70306;44.764;37.688;2023-07-24T04:54:28;25.33;64.41
79024;DHT22;70306;44.764;37.688;2023-07-24T04:55:30;25.28;64.28
79024;DHT22;70306;44.764;37.688;2023-07-24T04:56:35;25.26;64.65
79024;DHT22;70306;44.764;37.688;2023-07-24T04:57:37;25.28;64.49
79024;DHT22;70306;44.764;37.688;2023-07-24T04:58:39;25.30;64.48
79024;DHT22;70306;44.764;37.688;2023-07-24T04:59:41;25.30;64.35
79024;DHT22;70306;44.764;37.688;2023-07-24T05:00:43;25.21;64.58
79024;DHT22;70306;44.764;37.688;2023-07-24T05:01:45;25.16;64.30
79024;DHT22;70306;44.764;37.688;2023-07-24T05:02:47;25.17;64.46
79024;DHT22;70306;44.764;37.688;2023-07-24T05:03:49;25.10;64.39
79024;DHT22;70306;44.764;37.688;2023-07-24T05:04:51;25.04;65.00
79024;DHT22;70306;44.764;37.688;2023-07-24T05:05:56;25.07;64.75
79024;DHT22;70306;44.764;37.688;2023-07-24T05:06:58;25.20;64.69
79024;DHT22;70306;44.764;37.688;2023-07-24T05:08:00;25.17;63.65
79024;DHT22;70306;44.764;37.688;2023-07-24T05:09:02;25.17;64.19
79024;DHT22;70306;44.764;37.688;2023-07-24T05:10:05;25.20;64.26
79024;DHT22;70306;44.764;37.688;2023-07-24T05:11:07;25.23;64.36
79024;DHT22;70306;44.764;37.688;2023-07-24T05:12:09;25.13;63.85
79024;DHT22;70306;44.764;37.688;2023-07-24T05:13:11;25.07;64.17
79024;DHT22;70306;44.764;37.688;2023-07-24T05:14:13;25.10;63.82
79024;DHT22;70306;44.764;37.688;2023-07-24T05:15:15;25.13;63.83
79024;DHT22;70306;44.764;37.688;2023-07-24T05:16:19;25.09;63.64
79024;DHT22;70306;44.764;37.688;2023-07-24T05:17:21;25.06;64.28
79024;DHT22;70306;44.764;37.688;2023-07-24T05:18:23;25.13;63.83
79024;DHT22;70306;44.764;37.688;2023-07-24T05:19:25;25.10;63.78
79024;DHT22;70306;44.764;37.688;2023-07-24T05:20:27;25.09;63.06
79024;DHT22;70306;44.764;37.688;2023-07-24T05:21:29;25.06;63.51
79024;DHT22;70306;44.764;37.688;2023-07-24T05:22:31;25.06;63.36
79024;DHT22;70306;44.764;37.688;2023-07-24T05:23:33;25.03;63.19
79024;DHT22;70306;44.764;37.688;2023-07-24T05:24:34;25.03;63.94
79024;DHT22;70306;44.764;37.688;2023-07-24T05:25:36;25.04;62.99
79024;DHT22;70306;44.764;37.688;2023-07-24T05:26:38;24.99;63.03
79024;DHT22;70306;44.764;37.688;2023-07-24T05:27:40;24.99;63.11
79024;DHT22;70306;44.764;37.688;2023-07-24T05:28:42;24.92;62.82
79024;DHT22;70306;44.764;37.688;2023-07-24T05:29:44;24.92;63.34
79024;DHT22;70306;44.764;37.688;2023-07-24T05:30:46;24.94;63.05
79024;DHT22;70306;44.764;37.688;2023-07-24T05:31:48;24.94;62.25
79024;DHT22;70306;44.764;37.688;2023-07-24T05:32:50;24.97;62.91
79024;DHT22;70306;44.764;37.688;2023-07-24T05:33:52;25.03;62.34
79024;DHT22;70306;44.764;37.688;2023-07-24T05:34:54;25.02;62.30
79024;DHT22;70306;44.764;37.688;2023-07-24T05:36:03;25.02;62.36
79024;DHT22;70306;44.764;37.688;2023-07-24T05:37:05;25.10;62.66
79024;DHT22;70306;44.764;37.688;2023-07-24T05:38:07;25.16;62.79
79024;DHT22;70306;44.764;37.688;2023-07-24T05:39:09;25.23;62.70
79024;DHT22;70306;44.764;37.688;2023-07-24T05:40:11;25.27;62.68
79024;DHT22;70306;44.764;37.688;2023-07-24T05:41:13;25.34;62.25
79024;DHT22;70306;44.764;37.688;2023-07-24T05:42:15;25.38;62.08
79024;DHT22;70306;44.764;37.688;2023-07-24T05:43:16;25.42;61.68
79024;DHT22;70306;44.764;37.688;2023-07-24T05:44:18;25.45;62.06
79024;DHT22;70306;44.764;37.688;2023-07-24T05:45:20;25.55;61.69
79024;DHT22;70306;44.764;37.688;2023-07-24T05:46:22;25.59;61.38
79024;DHT22;70306;44.764;37.688;2023-07-24T05:47:24;25.66;61.84
79024;DHT22;70306;44.764;37.688;2023-07-24T05:48:26;25.68;60.89
79024;DHT22;70306;44.764;37.688;2023-07-24T05:49:28;25.68;60.79
79024;DHT22;70306;44.764;37.688;2023-07-24T05:50:30;25.68;60.66
79024;DHT22;70306;44.764;37.688;2023-07-24T05:51:33;25.66;60.55
79024;DHT22;70306;44.764;37.688;2023-07-24T05:52:35;25.63;59.97
79024;DHT22;70306;44.764;37.688;2023-07-24T05:53:37;25.59;59.93
79024;DHT22;70306;44.764;37.688;2023-07-24T05:54:39;25.59;59.92
79024;DHT22;70306;44.764;37.688;2023-07-24T05:55:41;25.58;59.28
79024;DHT22;70306;44.764;37.688;2023-07-24T05:56:44;25.59;58.89
79024;DHT22;70306;44.764;37.688;2023-07-24T05:57:45;25.66;58.51
79024;DHT22;70306;44.764;37.688;2023-07-24T05:58:47;25.59;59.24
79024;DHT22;70306;44.764;37.688;2023-07-24T05:59:52;25.69;59.21
79024;DHT22;70306;44.764;37.688;2023-07-24T06:00:54;25.79;59.22
79024;DHT22;70306;44.764;37.688;2023-07-24T06:01:59;25.79;58.34
79024;DHT22;70306;44.764;37.688;2023-07-24T06:03:01;25.83;59.24
79024;DHT22;70306;44.764;37.688;2023-07-24T06:04:03;25.90;58.55
79024;DHT22;70306;44.764;37.688;2023-07-24T06:05:07;25.96;58.90
79024;DHT22;70306;44.764;37.688;2023-07-24T06:06:09;25.99;58.03
79024;DHT22;70306;44.764;37.688;2023-07-24T06:07:11;26.04;58.71
79024;DHT22;70306;44.764;37.688;2023-07-24T06:08:12;26.01;57.21
79024;DHT22;70306;44.764;37.688;2023-07-24T06:09:14;26.06;57.49
79024;DHT22;70306;44.764;37.688;2023-07-24T06:10:16;26.12;57.38
79024;DHT22;70306;44.764;37.688;2023-07-24T06:11:18;26.08;57.70
79024;DHT22;70306;44.764;37.688;2023-07-24T06:12:20;26.03;57.77
79024;DHT22;70306;44.764;37.688;2023-07-24T06:13:23;26.10;58.74
79024;DHT22;70306;44.764;37.688;2023-07-24T06:14:25;26.17;57.20
79024;DHT22;70306;44.764;37.688;2023-07-24T06:15:27;26.14;57.57
79024;DHT22;70306;44.764;37.688;2023-07-24T06:16:29;26.13;56.97
79024;DHT22;70306;44.764;37.688;2023-07-24T06:17:31;26.20;56.98
79024;DHT22;70306;44.764;37.688;2023-07-24T06:18:34;26.30;56.61
79024;DHT22;70306;44.764;37.688;2023-07-24T06:19:37;26.40;55.21
79024;DHT22;70306;44.764;37.688;2023-07-24T06:20:39;26.42;55.99
79024;DHT22;70306;44.764;37.688;2023-07-24T06:21:41;26.49;54.40
79024;DHT22;70306;44.764;37.688;2023-07-24T06:22:43;26.47;52.88
79024;DHT22;70306;44.764;37.688;2023-07-24T06:23:45;26.44;54.20
79024;DHT22;70306;44.764;37.688;2023-07-24T06:24:47;26.44;54.17
79024;DHT22;70306;44.764;37.688;2023-07-24T06:25:49;26.47;54.13
79024;DHT22;70306;44.764;37.688;2023-07-24T06:26:53;26.48;54.37
79024;DHT22;70306;44.764;37.688;2023-07-24T06:27:55;26.45;55.15
79024;DHT22;70306;44.764;37.688;2023-07-24T06:28:57;26.48;55.49
79024;DHT22;70306;44.764;37.688;2023-07-24T06:29:59;26.47;55.57
79024;DHT22;70306;44.764;37.688;2023-07-24T06:31:00;26.49;55.77
79024;DHT22;70306;44.764;37.688;2023-07-24T06:32:03;26.63;54.54
79024;DHT22;70306;44.764;37.688;2023-07-24T06:33:05;26.75;54.24
79024;DHT22;70306;44.764;37.688;2023-07-24T06:34:07;26.72;53.32